Time;durP1;ratioP1;P1;durP2;ratioP2;P2;SDS_P1;SDS_P2;PMS_P1;PMS_P2;Temp;Humidity;BMP_temperature;BMP_pressure;BME280_temperature;BME280_humidity;BME280_pressure;Samples;Min_cycle;Max_cycle;Signal;HPM_P1;HPM_P2
2022/10/01 00:01:25;;;;;;;26.92;13.05;;;;;;;;;;5054684;28;20039;-71
2022/10/01 00:03:52;;;;;;;22.00;8.77;;;;;;;;;;5054514;28;20049;-71
2022/10/01 00:06:21;;;;;;;15.18;9.13;;;;;;;;;;5054483;28;20044;-71
2022/10/01 00:08:49;;;;;;;15.85;9.15;;;;;;;;;;5054410;28;20037;-71
2022/10/01 00:11:18;;;;;;;16.73;8.55;;;;;;;;;;5054472;28;20502;-72
2022/10/01 00:13:46;;;;;;;17.65;8.48;;;;;;;;;;5054388;28;20049;-72
2022/10/01 00:16:15;;;;;;;19.45;11.63;;;;;;;;;;5054352;28;20033;-71
2022/10/01 00:18:44;;;;;;;20.85;10.75;;;;;;;;;;5054264;28;20033;-71
2022/10/01 00:21:13;;;;;;;15.43;8.93;;;;;;;;;;5036498;28;20078;-72
2022/10/01 00:23:41;;;;;;;16.77;9.32;;;;;;;;;;5054123;28;20091;-72
2022/10/01 00:26:12;;;;;;;19.88;9.88;;;;;;;;;;5054212;28;20090;-71
2022/10/01 00:28:41;;;;;;;12.63;7.70;;;;;;;;;;5054065;28;20131;-72
2022/10/01 00:31:08;;;;;;;16.23;7.78;;;;;;;;;;5054194;28;20040;-72
2022/10/01 00:33:37;;;;;;;14.02;8.85;;;;;;;;;;5054036;28;20033;-71
2022/10/01 00:36:05;;;;;;;16.70;10.32;;;;;;;;;;5053935;28;20441;-71
2022/10/01 00:38:33;;;;;;;17.48;8.93;;;;;;;;;;5053910;28;20047;-72
2022/10/01 00:41:01;;;;;;;18.40;8.63;;;;;;;;;;5054149;28;20040;-71
2022/10/01 00:43:30;;;;;;;13.13;8.30;;;;;;;;;;5054001;28;20376;-71
2022/10/01 00:46:07;;;;;;;12.85;7.95;;;;;;;;;;5053860;28;20510;-71
2022/10/01 00:48:37;;;;;;;21.58;10.57;;;;;;;;;;5054175;28;20037;-71
2022/10/01 00:51:05;;;;;;;19.90;11.60;;;;;;;;;;5036104;28;20398;-72
2022/10/01 00:53:32;;;;;;;35.42;22.25;;;;;;;;;;5053515;28;20048;-72
2022/10/01 00:56:00;;;;;;;39.65;27.30;;;;;;;;;;5053671;28;20044;-72
2022/10/01 00:58:28;;;;;;;25.67;15.68;;;;;;;;;;5053505;28;20037;-72
2022/10/01 01:00:56;;;;;;;14.82;8.05;;;;;;;;;;5053640;28;20056;-72
2022/10/01 01:03:24;;;;;;;14.20;8.55;;;;;;;;;;5053727;28;20060;-72
2022/10/01 01:05:52;;;;;;;16.42;8.55;;;;;;;;;;5053548;28;20041;-72
2022/10/01 01:08:19;;;;;;;37.10;23.00;;;;;;;;;;5053594;28;20047;-72
2022/10/01 01:11:00;;;;;;;14.02;8.80;;;;;;;;;;5053710;28;20041;-73
2022/10/01 01:13:42;;;;;;;16.55;8.00;;;;;;;;;;5053374;28;20116;-72
2022/10/01 01:16:28;;;;;;;18.23;8.18;;;;;;;;;;5053221;28;20036;-71
2022/10/01 01:19:02;;;;;;;16.88;8.55;;;;;;;;;;5053192;28;20060;-71
2022/10/01 01:21:35;;;;;;;15.07;8.65;;;;;;;;;;5053133;28;20052;-71
2022/10/01 01:24:09;;;;;;;16.17;7.53;;;;;;;;;;5053257;28;20037;-71
2022/10/01 01:26:56;;;;;;;12.50;6.78;;;;;;;;;;5053137;28;20040;-71
2022/10/01 01:29:26;;;;;;;13.38;7.05;;;;;;;;;;5052902;28;20041;-71
2022/10/01 01:31:57;;;;;;;13.15;6.97;;;;;;;;;;5053027;28;20033;-71
2022/10/01 01:34:27;;;;;;;12.15;7.75;;;;;;;;;;5053039;28;20549;-71
2022/10/01 01:36:57;;;;;;;13.77;7.90;;;;;;;;;;5053134;28;20435;-72
2022/10/01 01:39:25;;;;;;;16.25;8.85;;;;;;;;;;5052855;28;20093;-71
2022/10/01 01:41:56;;;;;;;17.40;9.75;;;;;;;;;;5052822;28;20045;-73
2022/10/01 01:44:26;;;;;;;20.58;10.25;;;;;;;;;;5052806;28;20033;-73
2022/10/01 01:46:57;;;;;;;16.48;7.80;;;;;;;;;;5052851;28;20041;-73
2022/10/01 01:49:25;;;;;;;17.42;7.90;;;;;;;;;;5052600;28;20045;-73
2022/10/01 01:52:03;;;;;;;14.35;7.68;;;;;;;;;;5052640;28;20095;-71
2022/10/01 01:54:31;;;;;;;22.42;11.57;;;;;;;;;;5052743;28;20494;-71
2022/10/01 01:57:00;;;;;;;20.38;11.75;;;;;;;;;;5052437;28;20037;-72
2022/10/01 01:59:28;;;;;;;22.35;10.63;;;;;;;;;;5034560;28;20056;-72
2022/10/01 02:01:57;;;;;;;16.30;8.65;;;;;;;;;;5052528;28;20056;-72
2022/10/01 02:04:25;;;;;;;14.73;9.32;;;;;;;;;;5052649;28;20075;-72
2022/10/01 02:06:52;;;;;;;18.67;11.65;;;;;;;;;;5052462;28;20454;-72
2022/10/01 02:09:20;;;;;;;14.05;7.85;;;;;;;;;;5052483;28;20120;-71
2022/10/01 02:12:01;;;;;;;15.80;8.35;;;;;;;;;;5052497;28;20048;-71
2022/10/01 02:14:36;;;;;;;20.17;12.40;;;;;;;;;;5052501;28;20041;-72
2022/10/01 02:17:16;;;;;;;17.67;8.20;;;;;;;;;;5052537;28;20098;-72
2022/10/01 02:20:05;;;;;;;16.88;8.70;;;;;;;;;;5034527;28;20041;-73
2022/10/01 02:22:32;;;;;;;19.90;7.80;;;;;;;;;;5052419;28;20087;-72
2022/10/01 02:25:03;;;;;;;20.02;8.10;;;;;;;;;;5052599;28;20041;-72
2022/10/01 02:27:38;;;;;;;17.42;7.68;;;;;;;;;;5052448;28;20048;-72
2022/10/01 02:30:07;;;;;;;18.30;7.82;;;;;;;;;;5052377;28;20506;-72
2022/10/01 02:32:38;;;;;;;14.68;7.50;;;;;;;;;;5052410;28;20041;-72
2022/10/01 02:35:08;;;;;;;15.68;9.88;;;;;;;;;;5052383;28;20123;-72
2022/10/01 02:37:36;;;;;;;14.13;8.05;;;;;;;;;;5052310;28;20041;-72
2022/10/01 02:40:06;;;;;;;12.45;6.82;;;;;;;;;;5052703;28;20045;-72
2022/10/01 02:42:35;;;;;;;17.67;9.73;;;;;;;;;;5052292;28;20083;-72
2022/10/01 02:45:03;;;;;;;17.70;8.25;;;;;;;;;;5034815;28;20490;-72
2022/10/01 02:47:39;;;;;;;16.63;8.88;;;;;;;;;;5052463;28;20041;-72
2022/10/01 02:50:08;;;;;;;18.63;9.55;;;;;;;;;;5052356;28;20075;-72
2022/10/01 02:53:01;;;;;;;16.55;7.25;;;;;;;;;;5052282;28;20049;-72
2022/10/01 02:55:32;;;;;;;13.13;6.75;;;;;;;;;;5049424;28;20057;-72
2022/10/01 02:58:00;;;;;;;11.88;7.20;;;;;;;;;;5052594;28;20123;-72
2022/10/01 03:00:28;;;;;;;11.15;6.88;;;;;;;;;;5051839;28;20049;-71
2022/10/01 03:02:55;;;;;;;13.95;6.32;;;;;;;;;;5052041;28;20043;-72
2022/10/01 03:05:23;;;;;;;18.08;6.35;;;;;;;;;;5052072;28;20041;-72
2022/10/01 03:07:51;;;;;;;12.52;7.93;;;;;;;;;;5052017;28;20490;-72
2022/10/01 03:10:19;;;;;;;18.55;7.50;;;;;;;;;;5053506;28;20049;-72
2022/10/01 03:12:46;;;;;;;18.60;9.57;;;;;;;;;;5055475;28;20441;-72
2022/10/01 03:15:14;;;;;;;22.90;12.93;;;;;;;;;;5037822;28;20107;-72
2022/10/01 03:17:42;;;;;;;15.70;9.32;;;;;;;;;;5055458;28;20120;-72
2022/10/01 03:20:10;;;;;;;16.27;8.60;;;;;;;;;;5055441;28;20045;-72
2022/10/01 03:22:38;;;;;;;19.00;13.05;;;;;;;;;;5055361;28;20041;-72
2022/10/01 03:25:06;;;;;;;16.98;11.13;;;;;;;;;;5055366;28;20542;-72
2022/10/01 03:27:33;;;;;;;18.65;10.77;;;;;;;;;;5055342;28;20040;-71
2022/10/01 03:30:00;;;;;;;21.00;13.52;;;;;;;;;;5045900;28;20473;-72
2022/10/01 03:32:28;;;;;;;15.50;8.18;;;;;;;;;;5035237;28;20052;-72
2022/10/01 03:34:55;;;;;;;13.80;7.70;;;;;;;;;;5040533;28;20107;-71
2022/10/01 03:37:23;;;;;;;15.38;8.30;;;;;;;;;;5035037;28;20037;-72
2022/10/01 03:39:50;;;;;;;16.40;8.00;;;;;;;;;;5034966;28;20046;-70
2022/10/01 03:42:18;;;;;;;13.02;8.32;;;;;;;;;;5053967;28;20044;-70
2022/10/01 03:44:46;;;;;;;14.32;8.63;;;;;;;;;;5074861;28;20045;-70
2022/10/01 03:47:14;;;;;;;16.40;9.35;;;;;;;;;;5074734;28;20054;-70
2022/10/01 03:49:41;;;;;;;17.95;9.45;;;;;;;;;;5074895;28;20041;-71
2022/10/01 03:52:09;;;;;;;21.08;10.02;;;;;;;;;;5075162;28;20106;-71
2022/10/01 03:54:38;;;;;;;17.75;8.98;;;;;;;;;;5074999;28;20051;-71
2022/10/01 03:57:05;;;;;;;22.88;9.77;;;;;;;;;;5054436;28;20037;-70
2022/10/01 03:59:34;;;;;;;15.77;10.00;;;;;;;;;;5054376;28;20469;-70
2022/10/01 04:02:02;;;;;;;17.52;9.43;;;;;;;;;;5054591;28;20549;-70
2022/10/01 04:04:30;;;;;;;18.10;8.30;;;;;;;;;;5054593;28;20041;-70
2022/10/01 04:06:57;;;;;;;18.10;9.82;;;;;;;;;;5054473;28;20033;-70
2022/10/01 04:09:25;;;;;;;15.15;8.35;;;;;;;;;;5054613;28;20383;-70
2022/10/01 04:11:53;;;;;;;21.38;9.68;;;;;;;;;;5054526;28;20041;-70
2022/10/01 04:14:20;;;;;;;18.10;10.73;;;;;;;;;;5054401;28;20099;-75
2022/10/01 04:16:51;;;;;;;17.73;10.75;;;;;;;;;;5054434;28;20044;-70
2022/10/01 04:19:19;;;;;;;23.75;9.77;;;;;;;;;;5054234;28;20094;-69
2022/10/01 04:21:46;;;;;;;19.90;9.93;;;;;;;;;;5053836;28;20087;-69
2022/10/01 04:24:14;;;;;;;21.80;10.98;;;;;;;;;;5036257;28;20144;-69
2022/10/01 04:26:41;;;;;;;16.20;9.43;;;;;;;;;;5054020;28;20119;-69
2022/10/01 04:29:09;;;;;;;15.30;8.98;;;;;;;;;;5054104;28;20069;-71
2022/10/01 04:31:36;;;;;;;26.35;9.48;;;;;;;;;;5036313;28;20045;-69
2022/10/01 04:34:05;;;;;;;19.00;9.40;;;;;;;;;;5053937;28;20032;-69
2022/10/01 04:36:32;;;;;;;21.58;11.07;;;;;;;;;;5035958;28;20139;-69
2022/10/01 04:39:00;;;;;;;40.70;24.15;;;;;;;;;;5036605;28;20048;-69
2022/10/01 04:41:29;;;;;;;25.25;15.65;;;;;;;;;;5053935;28;20501;-71
2022/10/01 04:43:58;;;;;;;30.67;16.58;;;;;;;;;;5051007;28;20041;-71
2022/10/01 04:46:28;;;;;;;25.05;14.95;;;;;;;;;;5044608;28;20033;-71
2022/10/01 04:48:56;;;;;;;30.50;20.02;;;;;;;;;;5053627;28;20510;-71
2022/10/01 04:51:23;;;;;;;52.95;36.50;;;;;;;;;;5053625;28;20565;-72
2022/10/01 04:53:51;;;;;;;29.30;19.25;;;;;;;;;;5053545;28;20043;-69
2022/10/01 04:56:18;;;;;;;28.48;15.30;;;;;;;;;;5050181;28;20041;-69
2022/10/01 04:58:47;;;;;;;54.53;37.92;;;;;;;;;;5035899;28;20083;-69
2022/10/01 05:01:14;;;;;;;28.00;15.15;;;;;;;;;;5053397;28;20037;-68
2022/10/01 05:03:42;;;;;;;31.30;19.80;;;;;;;;;;5053330;28;20055;-68
2022/10/01 05:06:10;;;;;;;33.40;18.33;;;;;;;;;;5053609;28;20437;-69
2022/10/01 05:08:37;;;;;;;33.88;21.02;;;;;;;;;;5053401;28;20132;-70
2022/10/01 05:11:05;;;;;;;21.58;14.38;;;;;;;;;;5024420;28;20063;-71
2022/10/01 05:13:33;;;;;;;34.58;22.55;;;;;;;;;;5033093;28;20079;-71
2022/10/01 05:16:01;;;;;;;30.48;20.20;;;;;;;;;;5033137;28;20099;-71
2022/10/01 05:18:29;;;;;;;26.08;14.13;;;;;;;;;;5041121;28;20486;-71
2022/10/01 05:20:56;;;;;;;34.35;17.38;;;;;;;;;;5043469;28;20041;-71
2022/10/01 05:23:24;;;;;;;41.47;23.20;;;;;;;;;;5042597;28;20041;-71
2022/10/01 05:25:51;;;;;;;40.47;18.33;;;;;;;;;;5041756;28;20060;-71
2022/10/01 05:28:18;;;;;;;27.65;13.18;;;;;;;;;;5043088;28;20037;-71
2022/10/01 05:30:49;;;;;;;32.67;19.55;;;;;;;;;;5043244;28;20033;-69
2022/10/01 05:33:17;;;;;;;19.83;14.25;;;;;;;;;;5042661;28;20040;-70
2022/10/01 05:35:45;;;;;;;24.60;12.23;;;;;;;;;;5025168;28;20512;-70
2022/10/01 05:38:12;;;;;;;25.92;10.90;;;;;;;;;;5041365;28;20148;-70
2022/10/01 05:40:40;;;;;;;25.00;11.38;;;;;;;;;;5042907;28;20041;-69
2022/10/01 05:43:07;;;;;;;24.25;10.90;;;;;;;;;;5043161;28;20484;-70
2022/10/01 05:45:35;;;;;;;29.08;11.85;;;;;;;;;;5043577;28;20563;-69
2022/10/01 05:48:06;;;;;;;20.42;10.88;;;;;;;;;;5052712;28;20044;-69
2022/10/01 05:50:39;;;;;;;13.95;9.95;;;;;;;;;;5052335;28;20044;-70
2022/10/01 05:53:07;;;;;;;19.13;9.95;;;;;;;;;;5052588;28;20139;-70
2022/10/01 05:55:34;;;;;;;17.77;12.95;;;;;;;;;;5052555;28;20033;-69
2022/10/01 05:58:07;;;;;;;18.05;13.73;;;;;;;;;;5052402;28;20099;-69
2022/10/01 06:00:35;;;;;;;14.77;9.45;;;;;;;;;;5052162;28;20106;-70
2022/10/01 06:03:03;;;;;;;21.92;16.95;;;;;;;;;;5052562;28;20079;-70
2022/10/01 06:05:32;;;;;;;27.10;16.58;;;;;;;;;;5052489;28;20041;-70
2022/10/01 06:07:59;;;;;;;27.27;20.17;;;;;;;;;;5052810;28;20394;-70
2022/10/01 06:10:29;;;;;;;34.60;26.15;;;;;;;;;;5052333;28;20041;-70
2022/10/01 06:13:06;;;;;;;21.20;14.30;;;;;;;;;;5052568;28;20505;-70
2022/10/01 06:15:37;;;;;;;15.38;10.18;;;;;;;;;;5052390;28;20043;-70
2022/10/01 06:18:06;;;;;;;22.52;16.67;;;;;;;;;;5052311;28;20502;-70
2022/10/01 06:20:34;;;;;;;12.05;8.50;;;;;;;;;;5050672;28;20124;-71
2022/10/01 06:23:04;;;;;;;15.77;10.43;;;;;;;;;;5050322;28;20041;-68
2022/10/01 06:25:33;;;;;;;11.68;8.15;;;;;;;;;;5050939;28;20057;-69
2022/10/01 06:28:01;;;;;;;11.85;8.00;;;;;;;;;;5050443;28;20073;-69
2022/10/01 06:30:30;;;;;;;14.70;7.18;;;;;;;;;;5050177;28;20077;-69
2022/10/01 06:33:01;;;;;;;8.60;6.30;;;;;;;;;;5050363;28;20040;-69
2022/10/01 06:35:29;;;;;;;8.68;5.65;;;;;;;;;;5051254;28;20040;-68
2022/10/01 06:37:57;;;;;;;10.43;6.03;;;;;;;;;;5043377;28;20069;-68
2022/10/01 06:40:24;;;;;;;10.07;5.95;;;;;;;;;;5031971;28;20410;-69
2022/10/01 06:42:52;;;;;;;12.90;9.43;;;;;;;;;;5032247;28;20037;-67
2022/10/01 06:45:23;;;;;;;7.68;4.90;;;;;;;;;;5037960;28;20065;-67
2022/10/01 06:48:01;;;;;;;9.55;5.20;;;;;;;;;;5035990;28;20080;-67
2022/10/01 06:50:30;;;;;;;5.53;4.28;;;;;;;;;;5018340;28;20048;-67
2022/10/01 06:52:58;;;;;;;8.93;4.20;;;;;;;;;;5035993;28;20463;-67
2022/10/01 06:55:27;;;;;;;9.45;4.13;;;;;;;;;;5035822;28;20044;-67
2022/10/01 06:57:57;;;;;;;9.38;6.95;;;;;;;;;;5036109;28;20041;-66
2022/10/01 07:00:25;;;;;;;7.38;4.97;;;;;;;;;;5035603;28;20057;-67
2022/10/01 07:02:53;;;;;;;7.00;4.50;;;;;;;;;;5045069;28;20045;-67
2022/10/01 07:05:20;;;;;;;4.10;3.40;;;;;;;;;;5055531;28;20554;-67
2022/10/01 07:07:47;;;;;;;10.40;5.00;;;;;;;;;;5055616;28;20033;-68
2022/10/01 07:10:16;;;;;;;6.55;5.10;;;;;;;;;;5055451;28;20076;-67
2022/10/01 07:12:44;;;;;;;9.65;5.38;;;;;;;;;;5055480;28;20494;-68
2022/10/01 07:15:12;;;;;;;7.80;4.10;;;;;;;;;;5055324;28;20040;-67
2022/10/01 07:17:44;;;;;;;9.35;4.10;;;;;;;;;;5037388;28;20499;-67
2022/10/01 07:20:13;;;;;;;8.27;4.00;;;;;;;;;;5055331;28;20045;-68
2022/10/01 07:22:41;;;;;;;5.50;3.28;;;;;;;;;;5037673;28;20037;-67
2022/10/01 07:25:08;;;;;;;6.68;3.72;;;;;;;;;;5037869;28;20049;-68
2022/10/01 07:27:36;;;;;;;7.97;4.10;;;;;;;;;;5055396;28;20044;-67
2022/10/01 07:30:04;;;;;;;7.35;3.88;;;;;;;;;;5055219;28;20103;-67
2022/10/01 07:32:34;;;;;;;6.13;3.95;;;;;;;;;;5054933;28;20394;-68
2022/10/01 07:35:02;;;;;;;8.68;4.97;;;;;;;;;;5054780;28;20084;-68
2022/10/01 07:37:29;;;;;;;9.25;5.57;;;;;;;;;;5037635;28;20118;-68
2022/10/01 07:39:57;;;;;;;18.30;10.52;;;;;;;;;;5054972;28;20052;-68
2022/10/01 07:42:26;;;;;;;20.00;11.75;;;;;;;;;;5054823;28;20052;-68
2022/10/01 07:44:54;;;;;;;21.25;13.60;;;;;;;;;;5055013;28;20041;-67
2022/10/01 07:47:21;;;;;;;19.33;13.98;;;;;;;;;;5054883;28;20045;-69
2022/10/01 07:49:48;;;;;;;23.45;15.45;;;;;;;;;;5036480;28;20059;-67
2022/10/01 07:52:16;;;;;;;21.77;15.30;;;;;;;;;;5054605;28;20076;-68
2022/10/01 07:54:43;;;;;;;18.88;11.40;;;;;;;;;;5054592;28;20045;-67
2022/10/01 07:57:11;;;;;;;16.83;10.93;;;;;;;;;;5054024;28;20044;-68
2022/10/01 07:59:39;;;;;;;13.82;7.20;;;;;;;;;;5050021;28;20045;-68
2022/10/01 08:02:17;;;;;;;11.18;6.05;;;;;;;;;;5038421;28;20430;-67
2022/10/01 08:07:31;;;;;;;10.93;7.55;;;;;;;;;;5035498;28;20076;-67
2022/10/01 08:09:59;;;;;;;10.30;6.32;;;;;;;;;;5054144;28;20060;-67
2022/10/01 08:12:27;;;;;;;13.48;7.03;;;;;;;;;;5054180;28;20044;-67
2022/10/01 08:14:55;;;;;;;15.02;8.45;;;;;;;;;;5019614;28;20119;-67
2022/10/01 08:17:22;;;;;;;14.55;8.05;;;;;;;;;;5053904;28;20803;-67
2022/10/01 08:19:55;;;;;;;14.60;8.70;;;;;;;;;;5053955;28;20509;-67
2022/10/01 08:22:23;;;;;;;15.52;6.60;;;;;;;;;;5053993;28;20049;-67
2022/10/01 08:24:50;;;;;;;11.63;6.63;;;;;;;;;;5053955;28;20076;-67
2022/10/01 08:27:17;;;;;;;9.82;6.93;;;;;;;;;;5053814;28;20091;-67
2022/10/01 08:29:45;;;;;;;14.55;6.55;;;;;;;;;;5052718;28;20069;-67
2022/10/01 08:32:13;;;;;;;17.38;6.95;;;;;;;;;;5050387;28;20041;-67
2022/10/01 08:34:41;;;;;;;12.63;7.00;;;;;;;;;;5052995;28;20433;-67
2022/10/01 08:37:08;;;;;;;11.75;7.03;;;;;;;;;;5052601;28;20447;-67
2022/10/01 08:39:35;;;;;;;10.30;6.35;;;;;;;;;;5053020;28;20041;-67
2022/10/01 08:42:07;;;;;;;10.90;6.53;;;;;;;;;;5052851;28;20072;-67
2022/10/01 08:44:40;;;;;;;9.80;6.07;;;;;;;;;;5053225;28;20191;-67
2022/10/01 08:47:12;;;;;;;11.57;6.70;;;;;;;;;;5052673;28;20052;-67
2022/10/01 08:49:42;;;;;;;14.18;7.70;;;;;;;;;;5052967;28;20055;-67
2022/10/01 08:52:12;;;;;;;11.30;7.65;;;;;;;;;;5052986;28;20045;-67
2022/10/01 08:54:46;;;;;;;12.95;6.50;;;;;;;;;;5053036;28;20405;-67
2022/10/01 08:57:36;;;;;;;10.87;6.73;;;;;;;;;;5053116;28;20399;-67
2022/10/01 09:00:07;;;;;;;14.05;7.20;;;;;;;;;;5040732;28;20290;-67
2022/10/01 09:02:37;;;;;;;13.07;7.32;;;;;;;;;;5053021;28;20044;-67
2022/10/01 09:05:06;;;;;;;11.55;7.10;;;;;;;;;;5053090;28;20521;-67
2022/10/01 09:07:43;;;;;;;15.80;7.30;;;;;;;;;;5050203;28;20124;-67
2022/10/01 09:10:16;;;;;;;17.67;10.80;;;;;;;;;;5052762;28;20037;-67
2022/10/01 09:12:47;;;;;;;16.42;8.32;;;;;;;;;;5052437;28;20388;-67
2022/10/01 09:15:24;;;;;;;13.65;8.02;;;;;;;;;;5034930;28;20049;-67
2022/10/01 09:18:04;;;;;;;15.30;8.25;;;;;;;;;;5052498;28;20047;-67
2022/10/01 09:20:36;;;;;;;18.88;13.73;;;;;;;;;;5052756;28;20044;-67
2022/10/01 09:23:21;;;;;;;57.60;45.65;;;;;;;;;;5052534;28;20398;-67
2022/10/01 09:25:50;;;;;;;22.20;16.38;;;;;;;;;;5052678;28;20041;-68
2022/10/01 09:28:20;;;;;;;57.97;48.78;;;;;;;;;;5052474;28;20056;-67
2022/10/01 09:30:54;;;;;;;23.52;16.48;;;;;;;;;;5052047;28;20095;-67
2022/10/01 09:33:23;;;;;;;20.38;14.60;;;;;;;;;;5052225;28;20439;-67
2022/10/01 09:36:00;;;;;;;58.45;48.63;;;;;;;;;;5050969;28;20099;-67
2022/10/01 09:38:48;;;;;;;47.22;37.75;;;;;;;;;;5051892;28;20044;-67
2022/10/01 09:41:16;;;;;;;23.00;17.02;;;;;;;;;;5048087;28;20041;-67
2022/10/01 09:43:44;;;;;;;29.30;21.98;;;;;;;;;;5052526;28;20044;-67
2022/10/01 09:46:14;;;;;;;38.63;29.75;;;;;;;;;;5052540;28;20045;-67
2022/10/01 09:48:42;;;;;;;28.33;21.85;;;;;;;;;;5049893;28;20052;-67
2022/10/01 09:51:15;;;;;;;40.53;32.10;;;;;;;;;;5051567;28;20129;-68
2022/10/01 09:54:02;;;;;;;15.02;8.65;;;;;;;;;;5052058;28;20041;-68
2022/10/01 09:56:33;;;;;;;21.00;13.57;;;;;;;;;;5046482;28;20494;-68
2022/10/01 09:59:04;;;;;;;22.65;16.92;;;;;;;;;;5045832;28;20348;-68
2022/10/01 10:01:37;;;;;;;27.70;20.50;;;;;;;;;;5052324;28;20041;-68
2022/10/01 10:04:05;;;;;;;17.98;12.48;;;;;;;;;;5046007;28;20052;-68
2022/10/01 10:06:33;;;;;;;16.17;9.13;;;;;;;;;;5027672;28;20057;-68
2022/10/01 10:09:01;;;;;;;17.92;8.77;;;;;;;;;;5051926;28;20041;-68
2022/10/01 10:11:30;;;;;;;18.08;9.32;;;;;;;;;;5052024;28;20068;-68
2022/10/01 10:14:01;;;;;;;17.20;11.27;;;;;;;;;;5051334;28;20056;-68
2022/10/01 10:16:33;;;;;;;17.58;13.90;;;;;;;;;;5051731;28;20098;-68
2022/10/01 10:19:10;;;;;;;13.90;6.13;;;;;;;;;;5053323;28;20044;-68
2022/10/01 10:21:38;;;;;;;11.57;4.55;;;;;;;;;;5055905;28;20049;-68
2022/10/01 10:24:06;;;;;;;14.27;6.78;;;;;;;;;;5030497;28;20045;-68
2022/10/01 10:26:37;;;;;;;108.85;26.88;;;;;;;;;;5054665;28;20116;-68
2022/10/01 10:29:07;;;;;;;73.35;24.80;;;;;;;;;;5056036;28;20037;-68
2022/10/01 10:31:41;;;;;;;125.07;38.80;;;;;;;;;;5055603;28;20044;-67
2022/10/01 10:34:12;;;;;;;106.80;44.60;;;;;;;;;;5047178;28;20518;-68
2022/10/01 10:36:41;;;;;;;49.58;20.50;;;;;;;;;;5055764;28;20099;-68
2022/10/01 10:39:30;;;;;;;17.02;10.25;;;;;;;;;;5055645;28;20475;-68
2022/10/01 10:41:59;;;;;;;12.60;6.53;;;;;;;;;;5055765;28;20037;-69
2022/10/01 10:44:29;;;;;;;20.58;10.55;;;;;;;;;;5055594;28;20069;-69
2022/10/01 10:46:59;;;;;;;10.13;5.75;;;;;;;;;;5038132;28;20041;-69
2022/10/01 10:49:29;;;;;;;12.13;5.68;;;;;;;;;;5055465;28;20044;-69
2022/10/01 10:51:59;;;;;;;31.40;21.95;;;;;;;;;;5053872;28;20044;-68
2022/10/01 10:54:38;;;;;;;21.05;12.77;;;;;;;;;;5054521;28;20033;-69
2022/10/01 10:57:22;;;;;;;19.95;13.18;;;;;;;;;;5053045;28;20478;-69
2022/10/01 11:00:01;;;;;;;11.07;6.90;;;;;;;;;;5053214;28;20044;-70
2022/10/01 11:02:30;;;;;;;19.35;12.65;;;;;;;;;;5053353;28;20185;-69
2022/10/01 11:05:00;;;;;;;7.15;5.15;;;;;;;;;;5054191;28;20067;-69
2022/10/01 11:07:28;;;;;;;12.07;8.88;;;;;;;;;;5036592;28;20056;-70
2022/10/01 11:09:55;;;;;;;9.32;5.57;;;;;;;;;;5036899;28;20029;-69
2022/10/01 11:12:38;;;;;;;10.02;6.15;;;;;;;;;;5054423;28;20037;-69
2022/10/01 11:15:11;;;;;;;13.75;8.48;;;;;;;;;;5044625;28;20115;-69
2022/10/01 11:17:42;;;;;;;8.57;5.87;;;;;;;;;;5053530;28;20041;-69
2022/10/01 11:20:15;;;;;;;16.02;9.05;;;;;;;;;;5054764;28;20278;-70
2022/10/01 11:22:52;;;;;;;10.73;7.18;;;;;;;;;;5054826;28;20033;-69
2022/10/01 11:25:40;;;;;;;10.32;6.60;;;;;;;;;;5054592;28;20394;-68
2022/10/01 11:28:33;;;;;;;9.52;4.65;;;;;;;;;;5053435;28;20033;-68
2022/10/01 11:31:07;;;;;;;9.13;7.18;;;;;;;;;;5049601;28;20041;-69
2022/10/01 11:33:34;;;;;;;21.35;13.70;;;;;;;;;;5045431;28;20045;-68
2022/10/01 11:36:05;;;;;;;10.98;7.25;;;;;;;;;;5054300;28;20090;-68
2022/10/01 11:38:35;;;;;;;9.95;6.78;;;;;;;;;;5036521;28;20041;-69
2022/10/01 11:41:21;;;;;;;12.57;8.80;;;;;;;;;;5054371;28;20695;-68
2022/10/01 11:43:51;;;;;;;10.20;5.40;;;;;;;;;;5045396;28;20052;-68
2022/10/01 11:46:25;;;;;;;10.50;5.00;;;;;;;;;;5054717;28;20048;-68
2022/10/01 11:49:13;;;;;;;8.80;6.07;;;;;;;;;;5054554;28;20045;-69
2022/10/01 11:51:43;;;;;;;11.38;6.43;;;;;;;;;;5052808;28;20530;-67
2022/10/01 11:54:13;;;;;;;10.45;4.70;;;;;;;;;;5040310;28;20049;-67
2022/10/01 12:00:07;;;;;;;7.13;3.90;;;;;;;;;;5054135;28;20106;-67
2022/10/01 12:02:48;;;;;;;6.65;3.63;;;;;;;;;;4972090;28;20478;-67
2022/10/01 12:05:17;;;;;;;6.03;4.20;;;;;;;;;;4956326;28;20109;-67
2022/10/01 12:07:48;;;;;;;6.57;3.58;;;;;;;;;;5019874;28;20103;-67
2022/10/01 12:10:36;;;;;;;8.05;4.30;;;;;;;;;;5051324;28;20048;-67
2022/10/01 12:13:08;;;;;;;8.77;3.45;;;;;;;;;;5051820;28;20041;-67
2022/10/01 12:15:36;;;;;;;7.43;4.05;;;;;;;;;;5053826;28;20048;-67
2022/10/01 12:18:05;;;;;;;7.03;3.35;;;;;;;;;;5053587;28;20498;-67
2022/10/01 12:20:36;;;;;;;7.57;3.08;;;;;;;;;;5027565;28;20037;-67
2022/10/01 12:23:04;;;;;;;6.28;3.45;;;;;;;;;;5052820;28;20029;-67
2022/10/01 12:25:38;;;;;;;11.05;4.00;;;;;;;;;;5034745;28;20386;-67
2022/10/01 12:28:06;;;;;;;6.80;3.13;;;;;;;;;;5053232;28;20099;-67
2022/10/01 12:30:40;;;;;;;9.07;3.25;;;;;;;;;;5035130;28;20085;-67
2022/10/01 12:33:26;;;;;;;7.70;3.25;;;;;;;;;;5052474;28;20079;-67
2022/10/01 12:35:57;;;;;;;7.25;3.00;;;;;;;;;;5049041;28;20120;-67
2022/10/01 12:38:40;;;;;;;7.90;3.45;;;;;;;;;;5035338;28;20048;-67
2022/10/01 12:41:28;;;;;;;5.20;2.97;;;;;;;;;;5027401;28;20037;-68
2022/10/01 12:44:16;;;;;;;5.93;2.58;;;;;;;;;;5052434;28;20055;-68
2022/10/01 12:46:44;;;;;;;6.15;3.30;;;;;;;;;;5053019;28;20395;-67
2022/10/01 12:49:21;;;;;;;6.15;3.00;;;;;;;;;;5053108;28;20044;-68
2022/10/01 12:52:01;;;;;;;7.88;3.85;;;;;;;;;;5029201;28;20048;-68
2022/10/01 12:54:40;;;;;;;5.60;2.92;;;;;;;;;;5053059;28;20040;-67
2022/10/01 12:57:14;;;;;;;6.50;3.30;;;;;;;;;;5052671;28;20037;-68
2022/10/01 12:59:50;;;;;;;7.55;4.22;;;;;;;;;;5035006;28;20498;-68
2022/10/01 13:02:38;;;;;;;10.73;7.05;;;;;;;;;;5052532;28;20044;-67
2022/10/01 13:05:23;;;;;;;10.38;5.32;;;;;;;;;;5052597;28;20131;-68
2022/10/01 13:07:51;;;;;;;6.68;3.92;;;;;;;;;;5052635;28;20120;-68
2022/10/01 13:10:18;;;;;;;7.78;4.57;;;;;;;;;;5034510;28;20064;-68
2022/10/01 13:12:58;;;;;;;6.50;3.78;;;;;;;;;;5051454;28;20040;-68
2022/10/01 13:15:32;;;;;;;6.32;3.92;;;;;;;;;;5051060;28;20040;-68
2022/10/01 13:18:18;;;;;;;7.50;3.88;;;;;;;;;;5052201;28;20048;-69
2022/10/01 13:20:54;;;;;;;8.05;4.80;;;;;;;;;;5052780;28;20090;-68
2022/10/01 13:23:25;;;;;;;5.72;3.65;;;;;;;;;;5033624;28;20108;-67
2022/10/01 13:25:56;;;;;;;5.18;3.08;;;;;;;;;;5052565;28;20508;-68
2022/10/01 13:28:42;;;;;;;5.22;3.00;;;;;;;;;;5052872;28;20041;-67
2022/10/01 13:31:11;;;;;;;7.80;3.22;;;;;;;;;;5052905;28;20052;-67
2022/10/01 13:33:39;;;;;;;5.38;3.10;;;;;;;;;;5035384;28;20044;-67
2022/10/01 13:36:07;;;;;;;5.70;3.35;;;;;;;;;;5052991;28;20061;-68
2022/10/01 13:38:38;;;;;;;7.47;3.30;;;;;;;;;;5052925;28;20055;-68
2022/10/01 13:41:07;;;;;;;6.00;3.30;;;;;;;;;;5033401;28;20033;-68
2022/10/01 13:43:35;;;;;;;4.75;3.00;;;;;;;;;;5051851;28;20073;-68
2022/10/01 13:46:07;;;;;;;7.75;3.67;;;;;;;;;;5051852;28;20055;-68
2022/10/01 13:48:36;;;;;;;7.82;3.60;;;;;;;;;;5052074;28;20076;-68
2022/10/01 13:51:09;;;;;;;5.95;3.58;;;;;;;;;;5052159;28;20120;-68
2022/10/01 13:53:43;;;;;;;5.13;3.28;;;;;;;;;;5051674;28;20040;-68
2022/10/01 13:56:13;;;;;;;9.07;3.67;;;;;;;;;;5052472;28;20115;-68
2022/10/01 13:58:42;;;;;;;11.68;4.10;;;;;;;;;;5052179;28;20398;-68
2022/10/01 14:01:17;;;;;;;4.95;3.60;;;;;;;;;;5052353;28;20033;-68
2022/10/01 14:04:00;;;;;;;9.20;4.10;;;;;;;;;;5052100;28;20049;-67
2022/10/01 14:06:36;;;;;;;7.47;3.85;;;;;;;;;;5052066;28;20041;-67
2022/10/01 14:09:24;;;;;;;7.18;3.80;;;;;;;;;;5052175;28;20037;-68
2022/10/01 14:17:36;;;;;;;;;;;;;;;;;;5052883;28;20074;-67
2022/10/01 14:20:04;;;;;;;18.40;5.18;;;;;;;;;;5052395;28;19920;-67
2022/10/01 14:22:35;;;;;;;9.52;4.03;;;;;;;;;;5052421;28;20112;-67
2022/10/01 14:25:22;;;;;;;13.25;4.28;;;;;;;;;;5052307;28;20049;-68
2022/10/01 14:27:58;;;;;;;9.73;4.05;;;;;;;;;;5052233;28;20095;-68
2022/10/01 14:30:36;;;;;;;11.00;4.35;;;;;;;;;;5052280;28;20111;-68
2022/10/01 14:33:09;;;;;;;11.55;3.92;;;;;;;;;;5052020;28;20048;-68
2022/10/01 14:35:57;;;;;;;9.93;4.40;;;;;;;;;;5052179;28;20098;-68
2022/10/01 14:38:25;;;;;;;12.00;4.25;;;;;;;;;;5052061;28;20514;-68
2022/10/01 14:40:53;;;;;;;8.73;4.47;;;;;;;;;;5052082;28;20518;-68
2022/10/01 14:43:22;;;;;;;11.45;4.60;;;;;;;;;;5052086;28;20041;-69
2022/10/01 14:45:52;;;;;;;12.85;6.32;;;;;;;;;;5052147;28;20041;-68
2022/10/01 14:48:20;;;;;;;10.02;4.78;;;;;;;;;;5054967;28;20045;-68
2022/10/01 14:50:49;;;;;;;10.60;4.95;;;;;;;;;;5060545;28;20072;-67
2022/10/01 14:53:17;;;;;;;8.18;4.00;;;;;;;;;;5014874;28;20119;-68
2022/10/01 14:55:46;;;;;;;10.13;4.57;;;;;;;;;;5032074;28;20073;-68
2022/10/01 14:58:20;;;;;;;10.25;4.70;;;;;;;;;;5014435;28;20046;-69
2022/10/01 15:00:50;;;;;;;9.27;4.63;;;;;;;;;;5043632;28;20483;-67
2022/10/01 15:03:17;;;;;;;8.93;4.95;;;;;;;;;;5051720;28;20090;-68